This is the latest recevied weather packets stored in our database for station/object DG9MHV-10. If no packets are shown the sender has not sent any weather packets the latest 10 day(s).
| Time | Temp. | Humidity | Pressure | Rain* | Wind** | Luminosity | Snow |
|---|---|---|---|---|---|---|---|
| 1778141468 | 12.78° C | 100% | 1009.1 hPa | - | - | - | - |
| 1778140568 | 13.33° C | 100% | 1008.5 hPa | - | - | - | - |
| 1778139668 | 13.89° C | 100% | 1008.6 hPa | - | - | - | - |
| 1778138768 | 12.22° C | 100% | 1009 hPa | - | - | - | - |
| 1778137868 | 12.78° C | 100% | 1008.6 hPa | - | - | - | - |
| 1778136968 | 12.78° C | 100% | 1008.7 hPa | - | - | - | - |
| 1778136068 | 12.78° C | 100% | 1009.2 hPa | - | - | - | - |
| 1778135168 | 11.67° C | 100% | 1009.5 hPa | - | - | - | - |
| 1778134268 | 11.11° C | 100% | 1009.1 hPa | - | - | - | - |
| 1778133368 | 12.22° C | 100% | 1008.8 hPa | - | - | - | - |
| 1778132468 | 12.78° C | 100% | 1011 hPa | - | - | - | - |
| 1778131568 | 10.56° C | 100% | 1015.7 hPa | - | - | - | - |
| 1778130668 | 9.44° C | 100% | 1017.8 hPa | - | - | - | - |
| 1778129768 | 8.89° C | 100% | 1019 hPa | - | - | - | - |
| 1778128868 | 8.33° C | 100% | 1019.8 hPa | - | - | - | - |
| 1778127968 | 8.33° C | 100% | 1020.3 hPa | - | - | - | - |
| 1778127067 | 7.78° C | 100% | 1020.3 hPa | - | - | - | - |
| 1778126167 | 7.22° C | 100% | 1019.9 hPa | - | - | - | - |
| 1778125267 | 7.22° C | 100% | 1019.3 hPa | - | - | - | - |
| 1778124367 | 6.67° C | 100% | 1018.8 hPa | - | - | - | - |
| 1778123467 | 6.67° C | 100% | 1018.6 hPa | - | - | - | - |
| 1778122567 | 6.67° C | 100% | 1018 hPa | - | - | - | - |
| 1778121669 | 6.67° C | 100% | 1017.5 hPa | - | - | - | - |
| 1778120767 | 6.67° C | 100% | 1016.8 hPa | - | - | - | - |
| 1778119867 | 6.67° C | 100% | 1015.4 hPa | - | - | - | - |
* Rain since midnight (hover to see other rain measurements)
** Current wind speed in m/s (hover to see current wind gust speed)